»·PEaware :: N74201 KBFL-KMHV

N74201 :: KBFL-KMHV

FLIGHT INFORMATION

Flight Status: Arrived
Operator: Privately registered:
United States
More flights under this callsign
Pilot: Jeff W. (31011)
Aircraft: CESSNA 172 SKYHAWK
(C172)
More flights by this aircraft type
Origin: KBFL Meadows
United States
Destination: KMHV Mojave
United States
More flights between these airports :: More routes between these airports
Route:
File this flight plan on PilotEdge
Remarks:
Altitude:
(Current/Filed)
9,500ft
Speed:
(Current/Filed)
114kts
Departed: 17-Jan-21 01:38 PM
Arrived: 17-Jan-21 02:46 PM
Distance/Time
Traveled:
50nm/1:07
Distance/Time
To Go:
Arrived

Flight Plot

Page will automatically refresh every two minutes.


Map Options




Map Legend


Flown Route
Filed Route
Departure Airport
Arrival Airport
Navaid (VOR, NDB)
Fix

Horizontal Profiles

Position Reports

Time Latitude Longitude Heading Altitude Ground
Speed
17-Jan-21 13:16 47.463890 -122.303734 90 424ft 0kts
17-Jan-21 13:17 47.463890 -122.303734 90 424ft 0kts
17-Jan-21 13:18 35.435703 -119.052044 180 504ft 0kts
17-Jan-21 13:19 35.435703 -119.052044 180 504ft 0kts
17-Jan-21 13:20 35.435703 -119.052044 180 504ft 0kts
17-Jan-21 13:21 35.435703 -119.052044 180 504ft 0kts
17-Jan-21 13:22 35.435703 -119.052044 180 504ft 0kts
17-Jan-21 13:23 35.435703 -119.052044 180 504ft 0kts
17-Jan-21 13:24 35.435703 -119.052044 180 504ft 0kts
17-Jan-21 13:26 35.435703 -119.052044 180 504ft 0kts
17-Jan-21 13:27 35.435487 -119.052055 183 503ft 4kts
17-Jan-21 13:28 35.435163 -119.052333 262 502ft 5kts
17-Jan-21 13:29 35.434651 -119.054231 223 494ft 14kts
17-Jan-21 13:30 35.432921 -119.052814 138 493ft 18kts
17-Jan-21 13:31 35.430232 -119.049589 133 491ft 27kts
17-Jan-21 13:32 35.426781 -119.045427 136 483ft 39kts
17-Jan-21 13:33 35.425527 -119.045270 348 478ft 0kts
17-Jan-21 13:34 35.425851 -119.044989 267 480ft 0kts
17-Jan-21 13:35 35.425850 -119.044989 268 480ft 0kts
17-Jan-21 13:36 35.425844 -119.045001 224 480ft 0kts
17-Jan-21 13:37 35.425844 -119.045002 225 480ft 0kts
17-Jan-21 13:38 35.427429 -119.048493 316 480ft 69kts
17-Jan-21 13:39 35.437314 -119.060684 313 756ft 99kts
17-Jan-21 13:39 35.445783 -119.071064 315 876ft 114kts
17-Jan-21 13:41 35.461470 -119.077779 34 1068ft 119kts
17-Jan-21 13:42 35.470401 -119.061039 49 1474ft 109kts
17-Jan-21 13:42 35.475558 -119.047772 90 1851ft 111kts
17-Jan-21 13:43 35.469587 -119.030713 116 2279ft 111kts
17-Jan-21 13:44 35.461013 -119.011674 116 2765ft 110kts
17-Jan-21 13:45 35.453848 -118.995978 116 3158ft 109kts
17-Jan-21 13:46 35.446827 -118.980673 116 3536ft 109kts
17-Jan-21 13:47 35.440392 -118.966688 116 3877ft 108kts
17-Jan-21 13:48 35.434329 -118.953209 111 4376ft 89kts
17-Jan-21 13:49 35.431384 -118.939113 85 4617ft 91kts
17-Jan-21 13:50 35.433579 -118.924973 100 4732ft 111kts
17-Jan-21 13:51 35.425891 -118.912505 119 5221ft 95kts
17-Jan-21 13:52 35.419868 -118.900122 116 5602ft 91kts
17-Jan-21 13:53 35.414150 -118.888084 116 5948ft 90kts
17-Jan-21 13:54 35.408162 -118.875489 116 6293ft 89kts
17-Jan-21 13:55 35.402376 -118.863330 116 6619ft 88kts
17-Jan-21 13:56 35.396744 -118.851458 116 6940ft 90kts
17-Jan-21 13:57 35.390855 -118.838992 116 7295ft 91kts
17-Jan-21 13:58 35.384810 -118.826333 116 7652ft 91kts
17-Jan-21 13:59 35.379109 -118.814403 116 7983ft 90kts
17-Jan-21 14:00 35.373523 -118.802634 116 8304ft 90kts
17-Jan-21 14:01 35.367608 -118.790101 116 8640ft 89kts
17-Jan-21 14:02 35.360720 -118.775563 116 9021ft 89kts
17-Jan-21 14:03 35.354736 -118.763010 116 9342ft 89kts
17-Jan-21 14:04 35.348765 -118.750443 116 9522ft 104kts
17-Jan-21 14:05 35.342130 -118.736528 117 9525ft 124kts
17-Jan-21 14:06 35.334744 -118.721206 117 9522ft 133kts
17-Jan-21 14:07 35.327065 -118.705282 117 9522ft 136kts
17-Jan-21 14:08 35.321386 -118.693486 117 9522ft 138kts
17-Jan-21 14:09 35.313508 -118.677099 117 9524ft 139kts
17-Jan-21 14:10 35.305446 -118.660340 117 9525ft 139kts
17-Jan-21 14:11 35.296888 -118.644171 123 9527ft 139kts
17-Jan-21 14:12 35.287770 -118.628715 123 9529ft 139kts
17-Jan-21 14:13 35.278494 -118.613061 124 9486ft 142kts
17-Jan-21 14:14 35.268819 -118.597693 125 9480ft 140kts
17-Jan-21 14:15 35.259341 -118.582734 125 9483ft 139kts
17-Jan-21 14:16 35.249993 -118.567965 125 9486ft 139kts
17-Jan-21 14:17 35.240614 -118.553611 128 9468ft 130kts
17-Jan-21 14:18 35.231106 -118.540994 133 9343ft 133kts
17-Jan-21 14:19 35.220698 -118.529352 138 9218ft 129kts
17-Jan-21 14:20 35.209798 -118.517996 137 9109ft 125kts
17-Jan-21 14:21 35.198747 -118.507188 141 8957ft 127kts
17-Jan-21 14:22 35.187778 -118.495953 139 8844ft 127kts
17-Jan-21 14:23 35.175496 -118.483748 136 8718ft 126kts
17-Jan-21 14:24 35.165926 -118.471158 131 8594ft 126kts
17-Jan-21 14:25 35.156486 -118.457893 129 8476ft 126kts
17-Jan-21 14:26 35.147800 -118.444291 116 8312ft 129kts
17-Jan-21 14:27 35.139902 -118.429692 125 8166ft 131kts
17-Jan-21 14:28 35.130880 -118.414849 124 7936ft 139kts
17-Jan-21 14:29 35.121362 -118.398937 121 7769ft 142kts
17-Jan-21 14:30 35.112768 -118.382223 121 7321ft 157kts
17-Jan-21 14:31 35.103609 -118.364577 119 6901ft 156kts
17-Jan-21 14:32 35.095409 -118.346420 117 6580ft 152kts
17-Jan-21 14:33 35.087398 -118.328210 118 6334ft 149kts
17-Jan-21 14:34 35.078902 -118.312695 127 5835ft 141kts
17-Jan-21 14:35 35.069746 -118.298766 123 5288ft 136kts
17-Jan-21 14:36 35.062316 -118.283752 113 4826ft 128kts
17-Jan-21 14:37 35.060121 -118.267046 92 4430ft 134kts
17-Jan-21 14:38 35.059457 -118.248553 93 4150ft 133kts
17-Jan-21 14:39 35.058878 -118.230456 89 3910ft 131kts
17-Jan-21 14:40 35.058772 -118.212758 89 3676ft 130kts
17-Jan-21 14:41 35.059046 -118.195541 88 3425ft 131kts
17-Jan-21 14:42 35.059404 -118.179897 91 3082ft 109kts
17-Jan-21 14:43 35.059219 -118.169686 91 2874ft 70kts
17-Jan-21 14:44 35.059206 -118.162126 91 2772ft 46kts
17-Jan-21 14:45 35.058780 -118.157842 159 2766ft 9kts
17-Jan-21 14:46 35.058436 -118.157790 182 2765ft 0kts
17-Jan-21 14:47 35.057594 -118.157365 100 2763ft 19kts
17-Jan-21 14:48 35.056944 -118.155301 100 2758ft 12kts
17-Jan-21 14:49 35.057013 -118.155127 44 2757ft 0kts
17-Jan-21 14:50 35.057013 -118.155127 44 2757ft 0kts
17-Jan-21 14:51 35.057013 -118.155127 44 2757ft 0kts
17-Jan-21 14:52 35.057013 -118.155127 44 2757ft 0kts
17-Jan-21 14:53 35.057013 -118.155127 44 2757ft 0kts

Navigation Log

Ident Type
Flight plan parsing failed, navigation log unavailable